Date,TemperatureHighF,TemperatureAvgF,TemperatureLowF,DewpointHighF,DewpointAvgF,DewpointLowF,HumidityHigh,HumidityAvg,HumidityLow,PressureMaxIn,PressureMinIn,WindSpeedMaxMPH,WindSpeedAvgMPH,GustSpeedMaxMPH,PrecipitationSumIn
2013-1-1,34,33,30,33,31,27,95,91,85,30.18,30.08,8,1,8,0.40
2013-1-2,34,29,24,26,21,19,86,73,56,30.29,30.15,7,1,7,0.01
2013-1-3,40,29,22,22,20,14,88,70,35,30.43,30.27,12,1,12,0.01
2013-1-4,38,31,27,24,22,19,76,68,54,30.46,30.40,12,2,12,0.00
2013-1-5,44,34,24,27,23,19,83,65,46,30.45,30.23,7,1,7,0.00
2013-1-6,43,36,26,31,26,18,75,65,60,30.42,30.10,14,4,14,0.00
2013-1-7,42,32,22,24,22,18,84,65,47,30.52,30.31,6,0,6,0.00
2013-1-8,53,41,31,35,28,22,74,60,43,30.41,30.29,9,1,9,0.00
2013-1-9,54,48,43,46,42,35,94,80,71,30.54,30.29,5,1,6,0.00
2013-1-10,45,44,44,40,37,34,84,75,70,30.52,30.51,4,2,6,0.00
2013-1-11,67,59,52,54,52,46,92,78,58,30.12,29.93,10,4,21,0.25
2013-1-12,64,61,56,62,59,54,96,93,80,30.07,29.86,7,1,13,0.36
2013-1-13,65,54,36,58,51,32,97,89,72,30.18,29.83,11,4,22,2.08
2013-1-14,36,30,26,33,24,20,88,77,71,30.48,30.18,10,3,11,0.00
2013-1-15,28,28,28,24,24,24,82,82,82,30.33,30.33,5,5,9,0.00
2013-1-16,32,30,27,30,27,23,93,89,85,30.17,29.97,6,3,0,0.01
2013-1-17,38,34,31,30,28,26,92,79,65,30.45,30.16,5,1,13,0.03
2013-1-18,42,37,22,27,23,15,78,58,44,30.59,30.35,5,2,11,0.00
2013-1-19,54,47,35,29,25,22,60,43,28,30.35,30.06,13,6,21,0.00
2013-1-20,45,39,27,30,18,5,69,44,23,30.25,30.06,11,3,12,0.00
2013-1-21,31,25,14,18,8,-2,69,50,26,30.32,30.16,16,5,0,0.00
2013-1-22,21,15,11,2,-4,-8,56,43,28,30.48,30.32,14,4,0,0.00
2013-1-23,34,23,12,15,8,0,66,51,36,30.45,30.16,9,1,0,0.00
2013-1-24,28,22,18,16,2,-7,62,42,27,30.61,30.20,21,4,0,0.00
2013-1-25,27,24,20,24,16,3,90,74,45,30.42,30.12,9,2,0,0.00
2013-1-26,36,28,25,24,20,17,90,73,49,30.48,30.26,7,2,0,0.02
2013-1-27,44,34,24,39,25,17,91,70,46,30.47,30.25,7,2,0,0.16
2013-1-28,55,50,42,50,44,36,92,82,65,30.25,30.13,17,4,13,0.15
2013-1-29,67,60,52,56,52,47,86,76,65,30.14,29.64,14,4,14,0.00
2013-1-30,68,54,32,58,48,22,95,82,66,29.72,29.37,21,7,21,0.78
2013-1-31,34,29,17,28,20,7,91,69,53,30.14,29.73,27,7,27,0.00
2013-2-1,20,14,8,9,3,-3,70,59,50,30.52,30.15,19,4,19,0.00
2013-2-2,32,26,17,29,21,9,89,80,68,30.41,30.09,10,2,11,0.05
2013-2-3,29,27,22,24,21,17,82,77,71,30.21,30.01,13,3,13,0.00
2013-2-4,46,32,17,39,24,13,90,74,49,30.20,29.91,12,3,12,0.07
2013-2-5,50,43,37,39,35,30,91,75,51,30.08,29.91,12,4,12,0.00
2013-2-6,46,37,28,32,29,25,90,72,51,30.28,30.09,7,1,11,0.00
2013-2-7,63,48,37,38,31,28,71,54,32,30.21,29.89,8,2,11,0.00
2013-2-8,48,39,33,45,33,26,92,78,70,30.37,29.86,16,5,16,0.06
2013-2-9,43,35,27,26,20,17,77,56,37,30.47,30.24,8,2,11,0.00
2013-2-10,58,46,36,48,30,18,90,57,27,30.25,29.88,16,3,16,0.15
2013-2-11,55,50,38,50,35,23,87,59,36,30.13,29.88,17,6,21,0.00
2013-2-12,50,40,32,27,24,22,72,54,35,30.20,29.91,7,1,21,0.00
2013-2-13,41,36,31,32,28,25,91,74,54,30.00,29.77,10,1,21,0.04
2013-2-14,32,32,32,29,29,29,89,89,89,30.00,30.00,3,1,21,0.00
2013-2-15,42,35,27,32,26,18,80,70,53,30.20,30.05,7,2,17,0.00
2013-2-16,33,27,21,22,15,6,86,62,35,30.20,30.08,14,3,14,0.00
2013-2-17,36,26,19,13,9,3,73,49,27,30.32,30.18,11,2,11,0.00
2013-2-18,60,42,26,38,22,11,78,46,32,30.28,29.85,16,4,16,0.01
2013-2-19,45,36,24,39,24,13,89,63,38,30.20,29.78,17,7,17,0.11
2013-2-20,32,25,20,13,11,9,65,55,43,30.35,30.21,10,3,10,0.00
2013-2-21,36,28,19,28,16,11,87,62,45,30.38,30.06,11,3,11,0.15
2013-2-22,59,44,32,46,37,29,96,79,50,30.07,29.94,14,2,14,0.26
2013-2-23,47,40,33,36,28,22,83,64,44,30.03,29.93,8,2,8,0.00
2013-2-24,45,35,26,26,22,20,79,60,40,30.18,30.00,7,1,8,0.00
2013-2-25,48,37,28,23,21,19,71,53,35,30.18,29.83,14,5,14,0.00
2013-2-26,54,45,39,50,37,22,91,73,46,29.83,29.41,14,5,14,0.28
2013-2-27,39,36,32,34,32,28,90,84,71,29.83,29.64,15,6,15,0.02
2013-2-28,34,33,31,32,29,26,93,85,81,30.02,29.81,12,4,12,0.02
2013-3-1,36,34,31,32,31,27,93,89,82,30.05,29.98,8,2,8,0.03
2013-3-2,31,28,27,27,22,19,86,77,69,30.15,30.04,11,3,11,0.00
2013-3-3,34,28,23,22,19,14,86,70,47,30.17,30.11,10,2,10,0.00
2013-3-4,37,24,21,19,18,17,86,76,46,30.23,30.18,8,1,8,0.00
2013-3-5,46,38,28,45,33,23,96,84,48,29.99,29.59,13,5,31,0.65
2013-3-6,31,30,28,27,26,24,90,84,80,30.34,29.80,10,6,22,0.00
2013-3-7,34,32,30,27,25,22,86,75,63,30.44,30.33,3,1,6,0.01
2013-3-8,45,37,29,28,25,21,78,62,47,30.51,30.37,5,2,10,0.00
2013-3-9,63,49,33,32,27,23,73,45,24,30.37,30.09,5,2,11,0.00
2013-3-10,69,60,52,31,29,27,42,31,21,30.09,29.87,6,3,16,0.00
2013-3-11,62,48,38,52,40,30,94,76,30,29.93,29.68,12,4,20,0.81
2013-3-12,47,39,34,31,28,24,79,65,46,30.12,29.93,13,4,13,0.00
2013-3-13,37,32,27,29,20,11,84,62,43,30.41,30.09,18,6,18,0.00
2013-3-14,26,25,25,18,18,18,75,72,71,30.42,30.41,3,1,13,0.00
2013-3-15,60,49,32,40,34,26,78,59,44,30.25,29.81,6,1,13,0.00
2013-3-16,70,60,44,47,44,38,82,57,41,29.99,29.71,17,6,17,0.01
2013-3-17,43,36,34,38,34,31,96,89,81,30.11,29.94,17,4,17,0.73
2013-3-18,56,44,35,52,41,31,97,89,69,29.94,29.70,16,5,16,1.53
2013-3-19,47,39,34,32,21,5,86,53,18,30.19,29.93,17,5,17,0.00
2013-3-20,46,35,24,20,15,7,58,44,27,30.18,29.99,21,5,12,0.00
2013-3-21,24,23,22,11,11,10,61,58,56,30.07,30.06,3,0,0,0.00
2013-3-22,43,34,20,17,13,10,72,44,27,30.16,30.06,6,1,0,0.00
2013-3-23,52,43,37,27,21,16,56,41,27,30.08,29.84,9,2,0,0.00
2013-3-24,42,38,34,38,31,20,95,78,42,29.85,29.41,10,3,0,1.39
2013-3-25,35,32,30,31,28,25,91,87,77,30.03,29.53,14,7,0,0.03
2013-3-26,40,33,31,31,28,24,90,80,59,30.32,30.03,14,4,0,0.04
2013-3-27,42,36,28,26,22,19,76,58,43,30.40,30.31,11,2,0,0.00
2013-3-28,49,38,26,26,23,20,84,56,35,30.42,30.34,8,1,0,0.00
2013-3-29,54,43,32,38,28,23,84,59,30,30.37,30.26,9,1,0,0.00
2013-3-30,60,47,32,40,35,29,95,67,32,30.27,29.95,8,1,0,0.00
2013-3-31,58,50,47,47,44,38,95,79,53,29.95,29.83,10,2,0,0.17
2013-4-1,49,45,41,45,37,24,89,74,48,30.09,29.87,11,3,0,0.00
2013-4-2,48,40,28,23,14,9,72,37,21,30.32,30.16,11,2,6,0.00
2013-4-3,49,40,30,16,13,10,52,34,24,30.43,30.30,10,2,0,0.00
2013-4-4,51,44,36,32,21,12,65,40,32,30.31,30.02,11,2,0,0.00
2013-4-5,64,50,36,32,28,22,77,46,24,30.15,30.02,11,2,0,0.00
2013-4-6,71,56,42,34,29,24,48,36,24,30.19,29.97,8,2,12,0.00
2013-4-7,72,63,57,45,40,34,50,42,31,30.03,29.96,19,4,19,0.00
2013-4-8,74,65,56,52,46,39,65,52,41,30.02,29.93,15,2,15,0.00
2013-4-9,79,70,62,56,52,48,68,55,39,30.09,29.97,14,3,14,0.00
2013-4-10,83,73,62,59,54,51,74,54,37,30.02,29.80,16,3,16,0.00
2013-4-11,73,66,57,60,55,52,95,70,48,29.81,29.55,17,2,17,0.90
2013-4-12,58,49,40,56,38,30,95,67,47,29.99,29.55,15,5,15,0.56
2013-4-13,60,49,36,35,32,30,80,55,31,30.10,30.00,10,3,10,0.00
2013-4-14,72,57,44,48,38,33,75,52,26,30.07,29.89,8,1,8,0.00
2013-4-15,70,62,55,53,50,47,77,67,53,30.03,29.93,7,2,7,0.00
2013-4-16,80,68,60,62,57,52,91,69,51,30.21,29.99,10,2,0,0.42
2013-4-17,71,64,60,62,60,58,96,87,71,30.21,29.98,9,1,0,1.06
2013-4-18,81,71,63,60,55,48,81,58,33,29.98,29.65,16,4,0,0.00
2013-4-19,72,50,38,61,41,30,92,70,51,30.09,29.47,17,5,0,0.62
2013-4-20,54,44,35,32,27,22,81,55,29,30.40,30.10,10,2,0,0.00
2013-4-21,58,48,36,31,27,25,64,45,29,30.51,30.35,11,2,0,0.00
2013-4-22,69,57,43,42,33,25,51,41,27,30.35,30.15,6,1,0,0.00
2013-4-23,70,60,49,49,44,38,66,54,44,30.16,29.95,7,1,0,0.00
2013-4-24,63,52,41,55,44,34,94,75,56,30.29,29.83,10,3,0,0.96
2013-4-25,59,48,34,36,33,30,90,60,37,30.41,30.28,8,1,0,0.00
2013-4-26,61,52,42,38,30,24,59,44,25,30.48,30.34,5,1,0,0.00
2013-4-27,57,54,52,53,45,35,95,72,50,30.38,30.04,6,1,0,0.15
2013-4-28,67,58,52,57,54,49,95,85,63,30.04,29.86,10,2,0,0.30
2013-4-29,64,57,52,53,51,49,93,83,64,30.05,29.95,3,0,0,0.00
2013-4-30,76,65,51,56,51,47,93,64,37,30.07,29.99,4,0,0,0.00
2013-5-1,82,71,58,57,53,48,84,57,32,30.18,30.06,5,0,0,0.00
2013-5-2,74,67,58,54,50,48,71,56,43,30.21,30.09,4,0,0,0.00
2013-5-3,75,67,58,56,50,35,76,56,33,30.09,29.93,7,1,0,0.00
2013-5-4,70,60,53,52,44,35,95,58,33,30.01,29.92,13,1,0,0.00
2013-5-5,54,50,47,52,48,45,95,93,91,29.98,29.87,10,3,10,0.00
2013-5-6,65,56,51,54,51,46,94,85,61,29.94,29.82,10,2,10,0.01
2013-5-7,70,60,53,57,53,51,96,79,53,29.99,29.90,7,0,10,0.00
2013-5-8,73,61,56,58,56,52,97,83,49,30.04,29.93,6,0,10,0.00
2013-5-9,79,67,56,58,54,49,89,66,35,30.07,29.97,5,0,10,0.00
2013-5-10,69,63,62,61,58,55,95,84,60,29.99,29.86,5,0,10,0.00
2013-5-11,62,57,52,61,53,43,95,85,65,30.02,29.85,6,0,10,0.00
2013-5-12,52,46,41,42,37,28,88,72,42,30.12,30.02,4,0,10,0.00
2013-6-9,0,0,0,0,0,0,0,0,100,30.09,29.94,0,0,0,0.00
2013-6-10,0,0,0,0,0,0,0,0,100,29.94,29.85,0,0,0,0.00
2013-6-11,0,0,0,0,0,0,0,0,100,30.04,29.94,0,0,0,0.00
2013-6-12,0,0,0,0,0,0,0,0,100,30.00,29.84,0,0,0,0.00
2013-6-13,0,0,0,0,0,0,0,0,100,29.97,29.71,0,0,0,0.00
2013-6-14,0,0,0,0,0,0,0,0,100,30.08,29.93,0,0,0,0.00
2013-6-15,83,45,0,58,32,0,61,28,36,30.14,29.98,1,0,6,0.09
2013-6-16,82,73,65,66,62,58,94,71,55,30.06,29.96,4,0,6,0.12
2013-6-17,85,73,65,70,65,55,96,79,48,30.00,29.88,6,0,0,0.01
2013-6-18,81,70,62,65,62,54,95,79,46,29.99,29.84,10,0,0,0.52
2013-6-19,81,71,62,63,59,54,94,67,43,30.12,29.96,3,0,0,0.00
2013-6-20,86,75,63,62,58,53,80,57,36,30.19,30.11,2,0,0,0.00
2013-6-21,86,77,66,67,62,58,81,62,44,30.21,30.12,4,0,0,0.00
2013-6-22,87,78,66,67,64,61,90,64,44,30.20,30.06,2,0,2,0.00
2013-6-23,87,78,66,66,63,58,88,62,39,30.16,30.05,4,0,4,0.00
2013-6-24,84,72,68,72,66,64,92,81,57,30.16,30.06,12,0,12,0.57
2013-6-25,88,78,67,71,68,66,95,74,50,30.10,29.94,2,0,2,0.00
2013-6-26,86,74,67,71,67,64,96,80,52,29.98,29.77,13,0,13,1.27
2013-6-27,85,74,66,72,68,65,97,84,56,29.84,29.75,4,0,4,0.19
2013-6-28,84,77,69,69,62,53,84,63,34,29.75,29.61,9,0,9,0.00
2013-6-29,81,72,64,63,60,58,95,70,48,29.69,29.59,12,0,12,0.28
2013-6-30,79,72,63,64,61,58,97,72,50,29.80,29.65,2,0,2,0.02
2013-7-1,79,69,61,67,63,58,96,81,57,29.93,29.78,5,0,5,0.36
2013-7-2,80,70,61,69,64,60,97,84,60,30.04,29.90,1,0,1,0.04
2013-7-3,77,72,67,68,66,63,94,82,72,30.13,30.03,1,0,0,0.00
2013-7-4,70,67,64,68,65,62,97,92,80,30.15,30.08,2,0,0,1.50
2013-7-5,73,69,65,71,68,64,98,96,91,30.16,30.09,2,0,0,1.09
2013-7-6,74,69,67,69,67,64,97,93,74,30.15,30.08,2,0,0,0.45
2013-7-7,81,71,66,68,65,61,97,83,53,30.14,30.06,1,0,0,0.05
2013-7-8,87,78,66,70,66,63,96,70,47,30.16,30.06,0,0,5,0.00
2013-7-9,89,81,74,72,69,66,88,68,50,30.12,30.01,1,0,6,0.02
2013-7-10,89,77,70,74,70,67,96,82,59,30.02,29.84,5,0,12,0.32
2013-7-11,82,73,68,69,65,59,97,77,54,29.99,29.93,3,0,11,0.00
2013-7-12,79,70,63,59,55,50,76,60,39,30.07,29.99,12,0,12,0.00
2013-7-13,82,72,62,67,62,56,85,72,51,30.11,30.01,3,0,8,0.04
2013-7-14,89,78,69,72,68,65,88,73,49,30.21,30.09,1,0,8,0.00
2013-7-15,91,80,71,71,67,63,85,67,43,30.29,30.21,1,0,8,0.00
2013-7-16,90,81,72,70,68,65,85,66,45,30.32,30.24,1,0,8,0.00
2013-7-17,93,81,73,72,69,66,88,68,43,30.30,30.17,2,0,8,0.00
2013-7-18,90,79,73,74,70,65,90,76,53,30.19,30.04,2,0,8,0.33
2013-7-19,88,79,71,73,70,66,92,74,53,30.06,29.93,4,0,8,0.00
2013-7-20,87,80,73,73,70,66,87,72,51,29.96,29.86,6,0,8,0.00
2013-7-21,85,77,71,71,69,67,94,77,57,29.96,29.87,1,0,8,0.13
2013-7-22,75,72,71,72,70,69,97,95,82,29.91,29.81,1,0,8,0.37
2013-7-23,85,77,66,72,69,62,96,80,59,29.86,29.75,8,0,5,0.63
2013-7-24,77,70,63,67,61,56,93,74,53,29.97,29.80,4,0,0,0.00
2013-7-25,76,69,60,59,56,54,84,64,47,30.09,29.96,5,0,0,0.00
2013-7-26,81,71,58,62,58,52,90,65,46,30.09,29.98,3,0,0,0.00
2013-7-27,76,70,65,65,62,59,91,77,64,29.98,29.87,2,0,0,0.02
2013-7-28,74,65,56,59,51,44,83,61,37,30.10,29.93,2,0,0,0.00
2013-7-29,78,66,55,59,54,52,90,68,41,30.20,30.09,3,0,0,0.00
2013-7-30,78,69,61,65,60,57,91,76,50,30.23,30.14,0,0,0,0.03
2013-7-31,72,68,63,67,64,61,97,90,80,30.15,29.97,1,0,0,0.13
2013-8-1,80,72,65,68,63,58,97,78,47,30.00,29.94,4,0,0,0.00
2013-8-2,81,72,61,62,59,56,91,67,43,30.05,29.99,2,0,0,0.00
2013-8-3,82,75,68,69,65,60,88,72,58,30.03,29.94,4,0,0,0.00
2013-8-4,79,70,63,67,57,51,92,66,41,30.12,30.02,5,0,0,0.00
2013-8-5,83,70,60,58,54,50,78,59,35,30.12,29.96,3,0,0,0.00
2013-8-6,81,74,68,69,64,57,87,69,56,29.98,29.92,1,0,0,0.00
2013-8-7,83,76,72,76,71,69,95,85,66,29.96,29.87,2,0,0,0.17
2013-8-8,82,75,71,73,71,69,97,88,68,29.98,29.89,5,0,0,0.94
2013-8-9,84,75,70,72,70,68,96,85,65,30.02,29.93,5,0,0,0.27
2013-8-10,80,74,71,73,71,69,97,90,71,30.10,30.02,0,0,3,0.21
2013-8-11,84,76,70,73,70,66,98,81,56,30.11,30.03,1,0,8,0.01
2013-8-12,79,73,67,72,69,66,96,86,74,30.07,29.91,5,0,5,0.50
2013-8-13,77,71,64,71,65,54,94,82,62,30.04,29.88,6,0,6,0.22
2013-8-14,72,63,55,54,49,45,82,62,41,30.15,30.03,4,0,4,0.00
2013-8-15,61,58,57,49,49,48,76,72,63,30.15,30.13,0,0,1,0.00
2013-8-16,80,70,59,61,56,53,80,63,49,30.14,30.07,1,0,7,0.00
2013-8-17,82,72,64,62,59,55,78,64,45,30.17,30.09,2,0,3,0.00
2013-8-18,77,71,64,66,63,60,90,78,67,30.18,30.10,1,0,1,0.00
2013-8-19,82,72,66,71,66,64,96,81,57,30.14,30.06,2,0,2,0.04
2013-8-20,84,75,67,69,66,64,90,74,54,30.16,30.08,1,0,1,0.00
2013-8-21,82,73,68,71,66,60,96,81,52,30.17,30.06,7,0,7,0.01
2013-8-22,86,77,68,72,68,63,96,76,50,30.13,30.02,2,0,2,0.00
2013-8-23,83,73,70,69,67,64,91,83,54,30.08,30.01,4,0,4,0.00
2013-8-24,88,76,65,65,58,46,88,57,26,30.25,30.12,1,0,5,0.00
2013-8-25,86,74,63,66,60,56,85,64,38,30.33,30.22,2,0,2,0.00
2013-8-26,85,76,67,68,65,62,89,71,50,30.27,30.10,4,0,4,0.00
2013-8-27,87,78,70,72,69,67,90,76,58,30.11,29.99,4,0,4,0.00
2013-8-28,89,80,72,70,69,65,94,69,46,30.00,29.91,4,0,4,0.01
2013-8-29,86,78,71,71,68,64,93,73,51,30.01,29.94,4,0,4,0.00
2013-8-30,88,78,68,71,67,62,97,72,44,29.98,29.85,3,0,3,0.00
2013-8-31,88,74,68,76,69,66,97,84,55,29.95,29.76,7,0,7,2.26
2013-9-1,84,74,67,70,67,64,96,80,54,29.86,29.79,4,0,4,0.02
2013-9-2,84,75,69,71,68,66,94,81,62,29.90,29.80,3,0,3,0.01
2013-9-3,77,70,63,68,58,53,89,68,50,30.07,29.87,8,0,8,0.00
2013-9-4,80,68,56,60,56,54,93,69,44,30.16,30.07,3,0,3,0.00
2013-9-5,82,70,60,64,60,56,92,72,44,30.20,30.14,3,0,3,0.00
2013-9-6,83,71,62,63,57,51,87,63,37,30.21,30.10,3,0,3,0.00
2013-9-7,84,72,60,65,60,52,86,68,48,30.11,29.97,3,0,4,0.00
2013-9-8,88,77,67,67,65,61,93,69,46,30.00,29.93,3,0,3,0.00
2013-9-9,89,78,69,70,67,65,94,72,49,30.05,29.99,1,0,1,0.00
2013-9-10,89,80,72,70,69,68,87,71,51,30.16,30.05,3,0,3,0.00
2013-9-11,88,78,72,71,69,66,90,74,49,30.17,30.04,2,0,2,0.00
2013-9-12,82,74,67,70,66,62,92,78,60,30.06,29.88,6,0,6,0.08
2013-9-13,69,62,54,64,50,42,89,64,42,30.07,29.91,12,1,12,0.00
2013-9-14,68,59,50,48,44,40,85,61,36,30.17,30.07,4,0,4,0.00
2013-9-15,77,64,52,59,53,46,86,69,50,30.17,30.07,5,0,5,0.00
2013-9-16,71,66,60,61,58,55,92,79,64,30.25,30.09,3,0,3,0.01
2013-9-17,74,64,54,57,53,50,90,70,42,30.29,30.15,5,0,5,0.00
2013-9-18,72,67,62,64,61,57,89,81,74,30.18,30.10,2,0,2,0.00
2013-9-19,80,71,64,68,65,62,94,83,66,30.16,30.01,3,0,3,0.00
2013-9-20,83,74,66,66,64,62,92,73,51,30.02,29.81,6,0,6,0.01
2013-9-21,72,64,56,66,58,49,97,81,50,29.87,29.69,8,1,8,0.71
2013-9-22,68,59,51,50,48,45,86,68,47,30.01,29.87,5,0,5,0.00
2013-9-23,71,60,49,50,47,44,90,65,40,30.10,30.00,3,0,3,0.00
2013-9-24,78,64,52,59,53,47,85,70,48,30.07,29.90,1,0,1,0.00
2013-9-25,78,68,63,62,58,55,84,71,53,29.91,29.83,7,0,7,0.00
2013-9-26,77,66,56,60,56,52,97,73,47,30.07,29.90,2,0,2,0.00
2013-9-27,81,66,54,60,54,48,96,70,36,30.17,30.06,3,0,3,0.00
2013-9-28,80,66,56,60,55,52,88,69,43,30.20,30.08,3,0,3,0.00
2013-9-29,74,65,59,58,56,55,91,75,53,30.09,30.02,4,0,4,0.00
2013-9-30,76,69,60,59,57,53,92,68,46,30.06,29.98,2,0,6,0.00
2013-10-1,78,68,57,61,59,55,92,74,53,30.12,30.03,2,0,4,0.00
2013-10-2,82,70,61,68,63,59,94,80,56,30.14,30.04,1,0,4,0.00
2013-10-3,79,70,66,70,66,61,96,86,55,30.11,30.03,0,0,4,0.29
2013-10-4,81,72,63,66,64,62,96,78,55,30.13,30.05,2,0,4,0.00
2013-10-5,82,72,66,68,65,63,97,82,56,30.08,29.93,6,0,6,0.18
2013-10-6,75,65,53,67,62,51,96,90,70,29.93,29.76,5,0,5,0.85
2013-10-7,62,54,46,52,46,41,96,76,47,30.18,29.89,5,0,5,0.04
2013-10-8,65,55,46,47,44,42,87,68,44,30.27,30.17,7,0,7,0.00
2013-10-9,74,60,49,52,46,43,80,61,41,30.24,30.16,3,0,4,0.00
2013-10-10,57,56,53,46,45,44,74,67,63,30.17,30.14,0,0,4,0.00
2013-10-11,74,62,48,54,49,45,90,67,37,30.12,30.04,1,0,5,0.00
2013-10-12,76,64,51,57,54,49,94,71,41,30.13,30.04,1,0,5,0.00
2013-10-13,78,64,54,62,56,52,96,77,48,30.27,30.13,3,0,3,0.00
2013-10-14,73,62,54,57,54,48,91,76,55,30.31,30.16,2,0,2,0.00
2013-10-15,73,65,60,61,59,57,94,81,60,30.18,29.96,3,0,3,0.00
2013-10-16,66,62,57,61,59,55,94,90,81,30.00,29.93,2,0,2,0.05
2013-10-17,57,53,47,55,49,44,94,87,71,30.04,29.89,4,0,4,0.12
2013-10-18,62,51,40,48,43,39,98,76,45,30.11,29.99,3,0,3,0.00
2013-10-19,52,47,40,49,43,38,92,86,78,30.08,29.89,3,0,3,0.07
2013-10-20,59,47,36,41,38,34,96,73,40,30.14,30.06,5,0,0,0.00
2013-10-21,66,52,39,43,38,36,89,62,32,30.10,29.96,5,0,0,0.00
2013-10-22,55,48,39,47,35,23,88,64,32,30.09,29.85,7,0,0,0.03
2013-10-23,47,43,38,43,36,31,88,78,63,30.11,29.77,14,1,0,0.00
2013-10-24,46,39,35,35,31,27,80,72,52,30.34,30.11,8,0,0,0.00
2013-10-25,46,36,29,29,26,22,87,67,41,30.51,30.34,3,0,0,0.00
2013-10-26,54,42,32,33,28,24,76,59,39,30.35,30.04,7,1,0,0.00
2013-10-27,60,47,35,39,36,32,93,68,39,30.14,30.07,4,0,0,0.00
2013-10-28,60,53,47,52,46,37,92,77,63,30.30,30.12,0,0,0,0.00
2013-10-29,60,52,43,55,50,41,98,91,78,30.36,30.19,1,0,0,0.03
2013-10-30,67,61,56,62,59,54,98,93,75,30.21,30.06,3,0,0,0.29
2013-10-31,69,64,62,61,56,51,92,75,61,30.06,29.47,14,2,0,0.14
2013-11-1,64,57,50,53,47,41,92,71,44,29.79,29.57,9,1,0,0.39
2013-11-2,56,49,42,44,40,34,88,72,49,30.14,29.79,6,0,0,0.00
2013-11-3,54,44,35,38,35,32,90,72,47,30.40,30.14,4,0,0,0.00
2013-11-4,60,49,40,41,36,32,74,60,41,30.43,30.34,5,0,0,0.00
2013-11-5,64,55,48,39,36,30,67,50,28,30.44,30.26,3,0,0,0.00
2013-11-6,69,58,50,59,47,34,96,69,51,30.26,30.02,6,1,0,0.14
2013-11-7,50,43,37,48,33,24,92,70,40,30.30,30.06,11,2,0,0.14
2013-11-8,51,40,30,29,26,22,87,59,34,30.44,30.30,6,0,0,0.00
2013-11-9,60,46,34,32,26,22,68,48,23,30.31,30.15,10,2,0,0.00
2013-11-10,53,46,37,36,29,20,76,54,28,30.38,30.20,12,1,0,0.00
2013-11-11,62,47,32,42,25,16,87,47,17,30.34,30.15,7,0,0,0.00
2013-11-12,44,32,26,40,22,11,91,68,40,30.67,30.23,16,3,0,0.10
2013-11-13,40,30,22,21,19,16,84,64,39,30.73,30.48,6,0,0,0.01
2013-11-14,54,43,27,22,17,14,68,38,21,30.47,30.24,8,1,10,0.00
2013-11-15,55,46,37,44,30,17,93,57,35,30.26,30.15,8,1,10,0.01
2013-11-16,61,53,44,53,49,42,98,86,73,30.18,29.97,10,1,0,0.00
2013-11-17,65,61,51,62,55,39,96,81,52,29.95,29.65,11,3,0,0.71
2013-11-18,55,47,37,41,34,23,83,60,30,30.23,29.85,14,2,0,0.00
2013-11-19,42,36,31,27,25,24,75,64,52,30.35,30.23,10,2,0,0.00
2013-11-20,34,31,31,24,24,24,74,74,67,30.35,30.26,7,0,0,0.00
2013-11-21,31,31,31,24,24,24,74,74,74,30.33,30.21,0,0,0,0.00
2013-11-22,31,31,31,24,24,24,74,74,74,30.35,30.19,0,0,0,0.00
2013-11-23,40,30,22,24,20,9,74,66,28,30.60,30.32,15,0,0,0.00
2013-11-24,28,22,18,12,7,0,67,51,36,30.76,30.57,0,0,0,0.00
2013-11-25,42,31,22,30,14,8,92,52,29,30.57,30.24,0,0,0,0.00
2013-11-26,35,33,30,33,31,28,94,93,89,30.26,29.94,0,0,0,0.15
2013-11-27,31,27,20,28,21,13,89,78,65,30.39,29.96,0,0,0,0.00
2013-11-28,37,25,15,21,15,11,83,67,48,30.53,30.38,0,0,0,0.03
2013-11-29,44,32,22,24,20,15,77,61,42,30.67,30.53,0,0,0,0.02
2013-11-30,54,40,29,30,24,20,71,55,37,30.52,30.26,0,0,0,0.00
2013-12-1,50,44,38,33,29,24,64,56,48,30.25,29.98,0,0,0,0.00
2013-12-2,56,47,39,42,36,31,82,67,51,29.98,29.80,0,0,0,0.00
2013-12-3,56,50,43,47,45,41,94,82,70,29.90,29.81,0,0,0,0.00
2013-12-4,67,59,49,56,52,46,95,80,64,29.90,29.77,0,0,0,0.14
2013-12-5,65,51,34,62,47,32,96,88,78,30.16,29.85,0,0,0,1.47
2013-12-6,35,31,28,32,29,25,92,90,88,30.41,30.13,0,0,0,0.76
2013-12-7,28,26,23,25,22,19,89,85,80,30.61,30.40,0,0,0,0.00
2013-12-8,36,30,24,35,27,20,97,91,84,30.49,30.09,0,0,0,0.06
2013-12-9,35,31,26,34,27,20,97,86,76,30.29,30.09,0,0,0,0.17
2013-12-10,33,26,22,21,19,16,86,73,55,30.44,30.18,0,0,0,0.00
2013-12-11,23,21,20,18,17,16,87,84,81,30.46,30.44,0,0,0,0.00
2013-12-12,30,23,13,13,7,3,80,51,32,30.63,30.43,0,0,0,0.00
2013-12-13,44,33,21,28,15,9,68,48,28,30.43,30.17,0,0,0,0.02
2013-12-14,44,38,33,43,34,22,96,85,45,30.17,29.75,0,0,0,0.29
2013-12-15,33,30,28,31,25,22,91,82,74,30.20,29.93,0,0,0,0.00
2013-12-16,43,36,29,32,29,25,84,77,63,30.19,30.07,0,0,0,0.00
2013-12-17,43,36,28,34,30,23,87,77,68,30.27,30.05,0,0,0,0.01
2013-12-18,41,32,24,24,18,10,88,59,28,30.38,30.16,0,0,0,0.00
2013-12-19,59,48,35,35,24,17,51,40,34,30.22,30.04,14,0,0,0.00
2013-12-20,60,54,50,54,42,26,88,66,38,30.05,29.90,8,1,0,0.07
2013-12-21,70,62,56,61,57,49,96,83,70,29.91,29.58,21,3,0,0.43
2013-12-22,59,55,39,57,49,37,96,82,64,30.08,29.69,12,4,0,0.41
2013-12-23,39,33,26,37,25,18,92,73,59,30.44,30.09,12,4,0,0.01
2013-12-24,26,21,17,20,11,6,83,65,50,30.60,30.43,14,3,0,0.00
2013-12-25,39,29,17,20,14,9,72,54,35,30.53,30.29,7,2,0,0.00
2013-12-26,42,35,30,25,22,18,71,57,41,30.45,30.28,10,2,0,0.00
2013-12-27,50,38,26,24,19,14,78,50,27,30.50,30.39,8,1,0,0.00
2013-12-28,49,41,33,35,24,19,87,52,39,30.39,30.02,7,0,0,0.05
2013-12-29,44,39,31,39,36,27,96,89,79,30.11,29.89,14,2,0,0.43
2013-12-30,31,29,25,27,23,17,87,78,67,30.29,30.11,11,2,0,0.00
2013-12-31,37,28,22,20,17,14,77,64,46,30.48,30.28,11,2,0,0.00
2014-1-1,47,38,29,25,22,19,74,54,33,30.36,30.03,10,1,0,0.00
2014-1-2,38,28,13,35,23,6,94,81,55,30.34,29.83,21,4,0,0.13